Time;durP1;ratioP1;P1;durP2;ratioP2;P2;SDS_P1;SDS_P2;PMS_P1;PMS_P2;Temp;Humidity;BMP_temperature;BMP_pressure;BME280_temperature;BME280_humidity;BME280_pressure;Samples;Min_cycle;Max_cycle;Signal;HPM_P1;HPM_P2
2023/03/23 00:02:27;;;;;;;12.25;6.82;;;;;;;;;;5116834;27;20163;-68
2023/03/23 00:04:53;;;;;;;11.50;8.00;;;;;;;;;;5116600;27;20039;-67
2023/03/23 00:07:27;;;;;;;14.27;7.78;;;;;;;;;;5099862;27;20038;-68
2023/03/23 00:09:54;;;;;;;12.93;7.90;;;;;;;;;;5116649;27;20047;-68
2023/03/23 00:12:33;;;;;;;14.30;8.63;;;;;;;;;;5099700;27;20051;-68
2023/03/23 00:15:12;;;;;;;15.10;9.00;;;;;;;;;;5115783;27;20031;-68
2023/03/23 00:17:40;;;;;;;16.08;10.38;;;;;;;;;;5116287;27;20051;-69
2023/03/23 00:20:06;;;;;;;18.38;10.70;;;;;;;;;;5115685;27;20064;-69
2023/03/23 00:22:37;;;;;;;17.33;11.10;;;;;;;;;;5115954;27;20062;-68
2023/03/23 00:25:03;;;;;;;19.77;11.75;;;;;;;;;;5112926;28;20039;-68
2023/03/23 00:27:29;;;;;;;19.90;11.68;;;;;;;;;;5114861;27;20421;-68
2023/03/23 00:29:56;;;;;;;17.00;11.48;;;;;;;;;;5116521;27;20037;-68
2023/03/23 00:32:29;;;;;;;24.70;14.95;;;;;;;;;;5116281;27;20084;-68
2023/03/23 00:34:58;;;;;;;25.98;16.30;;;;;;;;;;5115843;27;20046;-69
2023/03/23 00:37:24;;;;;;;29.35;17.38;;;;;;;;;;5115972;27;20046;-68
2023/03/23 00:39:51;;;;;;;31.90;18.35;;;;;;;;;;5099184;27;20551;-69
2023/03/23 00:42:17;;;;;;;35.55;20.40;;;;;;;;;;5115494;27;20047;-70
2023/03/23 00:44:44;;;;;;;36.35;21.30;;;;;;;;;;5116383;27;20458;-71
2023/03/23 00:47:11;;;;;;;37.20;21.48;;;;;;;;;;5115756;28;20489;-71
2023/03/23 00:49:38;;;;;;;33.50;20.88;;;;;;;;;;5115887;27;20031;-71
2023/03/23 00:52:05;;;;;;;32.47;20.60;;;;;;;;;;5116217;27;20440;-71
2023/03/23 00:54:33;;;;;;;34.45;20.75;;;;;;;;;;5115489;27;20050;-71
2023/03/23 00:56:59;;;;;;;42.22;20.42;;;;;;;;;;5115265;27;20060;-71
2023/03/23 00:59:25;;;;;;;36.63;19.55;;;;;;;;;;5098773;27;20042;-71
2023/03/23 01:01:52;;;;;;;27.65;16.92;;;;;;;;;;5115521;28;20043;-71
2023/03/23 01:04:19;;;;;;;28.85;14.90;;;;;;;;;;5115535;27;20039;-71
2023/03/23 01:06:50;;;;;;;23.30;14.07;;;;;;;;;;5115694;27;20479;-71
2023/03/23 01:09:17;;;;;;;24.45;13.52;;;;;;;;;;5115636;28;20526;-72
2023/03/23 01:11:44;;;;;;;23.98;14.15;;;;;;;;;;5132938;28;20695;-71
2023/03/23 01:14:10;;;;;;;20.08;13.85;;;;;;;;;;5098000;28;20046;-71
2023/03/23 01:16:37;;;;;;;21.92;13.63;;;;;;;;;;5115928;28;20031;-71
2023/03/23 01:19:03;;;;;;;26.58;14.75;;;;;;;;;;5115618;28;20043;-71
2023/03/23 01:21:29;;;;;;;25.00;14.85;;;;;;;;;;5115572;28;20036;-72
2023/03/23 01:23:55;;;;;;;26.45;14.55;;;;;;;;;;5115191;28;20083;-72
2023/03/23 01:26:23;;;;;;;27.60;14.77;;;;;;;;;;5115549;28;20039;-69
2023/03/23 01:28:49;;;;;;;29.48;15.70;;;;;;;;;;5098449;28;20047;-69
2023/03/23 01:31:17;;;;;;;30.73;14.45;;;;;;;;;;5115741;28;20103;-68
2023/03/23 01:33:43;;;;;;;29.60;14.82;;;;;;;;;;5115218;28;20039;-68
2023/03/23 01:36:17;;;;;;;21.30;11.70;;;;;;;;;;5115211;28;20058;-69
2023/03/23 01:38:44;;;;;;;33.10;12.63;;;;;;;;;;5115276;28;20066;-68
2023/03/23 01:41:10;;;;;;;21.80;13.00;;;;;;;;;;5115052;28;20115;-68
2023/03/23 01:43:36;;;;;;;24.63;12.68;;;;;;;;;;5115214;28;20035;-68
2023/03/23 01:46:02;;;;;;;23.48;12.68;;;;;;;;;;5115710;28;20397;-68
2023/03/23 01:48:30;;;;;;;22.73;13.02;;;;;;;;;;5133542;28;20039;-69
2023/03/23 01:51:12;;;;;;;23.23;13.85;;;;;;;;;;5115202;28;20042;-68
2023/03/23 01:53:51;;;;;;;27.07;12.97;;;;;;;;;;5114728;28;20047;-68
2023/03/23 01:56:20;;;;;;;24.40;11.98;;;;;;;;;;5115518;28;20508;-68
2023/03/23 01:58:46;;;;;;;23.02;11.77;;;;;;;;;;5115409;28;20462;-68
2023/03/23 02:01:13;;;;;;;23.98;11.60;;;;;;;;;;5115394;28;20054;-68
2023/03/23 02:03:42;;;;;;;18.75;11.00;;;;;;;;;;5098171;28;20127;-68
2023/03/23 02:06:08;;;;;;;25.08;11.93;;;;;;;;;;5115051;27;20039;-68
2023/03/23 02:08:34;;;;;;;19.85;11.73;;;;;;;;;;5117646;27;20116;-68
2023/03/23 02:11:01;;;;;;;17.85;10.95;;;;;;;;;;5118587;27;20083;-69
2023/03/23 02:13:27;;;;;;;20.88;10.52;;;;;;;;;;5118917;27;20035;-69
2023/03/23 02:15:54;;;;;;;18.25;10.18;;;;;;;;;;5118826;27;20043;-68
2023/03/23 02:18:38;;;;;;;22.60;10.27;;;;;;;;;;5118588;27;20107;-69
2023/03/23 02:21:55;;;;;;;19.23;10.05;;;10.60;99.90;;;;;;5104755;27;20443;-69
2023/03/23 02:24:36;;;;;;;17.50;10.13;;;;;;;;;;5076309;27;20501;-68
2023/03/23 02:27:02;;;;;;;18.65;9.82;;;;;;;;;;5118340;27;20191;-69
2023/03/23 02:29:45;;;;;;;17.95;9.73;;;;;;;;;;5118585;27;20398;-68
2023/03/23 02:32:11;;;;;;;;;;;;;;;;;;5118553;27;20039;-68
2023/03/23 02:34:47;;;;;;;25.85;8.80;;;;;;;;;;5153171;27;19999;-69
2023/03/23 02:37:16;;;;;;;18.83;8.57;;;;;;;;;;5118400;27;20367;-68
2023/03/23 02:39:46;;;;;;;19.48;8.25;;;;;;;;;;5135753;27;20074;-72
2023/03/23 02:42:14;;;;;;;14.30;8.00;;;;;;;;;;5130655;27;20394;-72
2023/03/23 02:44:42;;;;;;;20.00;8.43;;;;;;;;;;5114991;28;20122;-68
2023/03/23 02:47:22;;;;;;;17.02;8.43;;;;;;;;;;5103357;27;20039;-68
2023/03/23 02:49:50;;;;;;;21.17;7.95;;;;;;;;;;5118430;27;20121;-68
2023/03/23 02:52:20;;;;;;;17.58;7.65;;;;;;;;;;5118312;27;20039;-69
2023/03/23 02:54:47;;;;;;;11.68;7.00;;;;;;;;;;5118425;27;20134;-69
2023/03/23 02:57:13;;;;;;;17.50;8.45;;;;;;;;;;5117797;27;20118;-68
2023/03/23 02:59:40;;;;;;;16.45;8.27;;;;;;;;;;5117732;27;20035;-68
2023/03/23 03:02:06;;;;;;;15.48;6.95;;;;;;;;;;5117650;27;20092;-68
2023/03/23 03:04:33;;;;;;;14.85;7.20;;;;;;;;;;5100781;27;20471;-68
2023/03/23 03:07:08;;;;;;;15.27;7.53;;;;;;;;;;5100943;27;20035;-68
2023/03/23 03:09:38;;;;;;;16.58;8.23;;;;;;;;;;5117672;27;20055;-69
2023/03/23 03:12:14;;;;;;;19.48;7.32;;;;;;;;;;5117699;27;20525;-68
2023/03/23 03:14:45;;;;;;;12.55;6.93;;;;;;;;;;5117718;27;20043;-68
2023/03/23 03:17:16;;;;;;;20.35;7.22;;;;;;;;;;5117072;27;20039;-68
2023/03/23 03:19:44;;;;;;;13.18;6.18;;;;;;;;;;5116945;27;20072;-68
2023/03/23 03:22:11;;;;;;;17.80;7.13;;;;;;;;;;5117305;27;20168;-68
2023/03/23 03:24:38;;;;;;;19.50;7.22;;;;;;;;;;5117637;27;20051;-68
2023/03/23 03:27:06;;;;;;;14.15;6.68;;;;;;;;;;5117134;27;20038;-68
2023/03/23 03:29:41;;;;;;;14.13;6.28;;;;;;;;;;5100246;27;20034;-68
2023/03/23 03:32:09;;;;;;;13.68;5.30;;;;;;;;;;5117462;27;20043;-68
2023/03/23 03:34:35;;;;;;;14.20;5.03;;;;;;;;;;5100171;27;20046;-68
2023/03/23 03:37:05;;;;;;;16.30;5.55;;;;;;;;;;5116793;27;20039;-68
2023/03/23 03:39:31;;;;;;;17.33;5.28;;;;;;;;;;5100679;27;20039;-68
2023/03/23 03:41:57;;;;;;;12.45;5.30;;;;;;;;;;5116947;27;20483;-68
2023/03/23 03:44:23;;;;;;;18.52;6.57;;;;;;;;;;5100364;27;20163;-68
2023/03/23 03:46:50;;;;;;;16.77;6.10;;;;;;;;;;5116882;27;20031;-68
2023/03/23 03:49:16;;;;;;;16.10;5.90;;;;;;;;;;5116938;27;20031;-68
2023/03/23 03:51:42;;;;;;;14.43;6.38;;;;;;;;;;5116873;27;20082;-68
2023/03/23 03:54:08;;;;;;;13.88;5.60;;;;;;;;;;5117476;27;20471;-68
2023/03/23 03:56:40;;;;;;;15.07;5.63;;;;;;;;;;5116885;27;20035;-68
2023/03/23 03:59:07;;;;;;;19.20;5.45;;;;;;;;;;5116733;27;20054;-68
2023/03/23 04:01:34;;;;;;;11.43;5.72;;;;;;;;;;5116533;27;20095;-68
2023/03/23 04:04:00;;;;;;;14.75;5.65;;;;;;;;;;5116592;27;20035;-70
2023/03/23 04:06:27;;;;;;;20.17;4.97;;;;;;;;;;5116634;27;20608;-70
2023/03/23 04:08:55;;;;;;;14.13;4.90;;;;;;;;;;5116565;27;20047;-72
2023/03/23 04:11:21;;;;;;;12.10;4.72;;;;;;;;;;5116738;27;20047;-71
2023/03/23 04:13:47;;;;;;;16.70;5.35;;;;;;;;;;5116438;27;20475;-71
2023/03/23 04:16:13;;;;;;;11.27;4.50;;;;;;;;;;5119321;27;20079;-71
2023/03/23 04:18:42;;;;;;;18.95;5.47;;;;;;;;;;5116760;27;20046;-71
2023/03/23 04:21:08;;;;;;;16.33;4.53;;;;;;;;;;5116504;27;20440;-72
2023/03/23 04:23:35;;;;;;;17.42;4.30;;;;;;;;;;5116748;27;20468;-72
2023/03/23 04:26:03;;;;;;;15.70;3.90;;;;;;;;;;5116262;27;20043;-72
2023/03/23 04:28:29;;;;;;;14.05;3.88;;;;;;;;;;5116521;27;20043;-72
2023/03/23 04:30:55;;;;;;;12.82;3.90;;;;;;;;;;5115215;27;20039;-72
2023/03/23 04:33:24;;;;;;;14.05;3.17;;;;;;;;;;5116094;27;20059;-72
2023/03/23 04:35:51;;;;;;;13.95;3.38;;;;;;;;;;5116320;27;20065;-72
2023/03/23 04:38:20;;;;;;;12.70;4.18;;;;;;;;;;5115886;27;20061;-72
2023/03/23 04:40:48;;;;;;;15.52;3.40;;;;;;;;;;5116027;27;20542;-72
2023/03/23 04:43:14;;;;;;;10.30;3.45;;;;;;;;;;5115954;27;20073;-72
2023/03/23 04:45:45;;;;;;;25.77;3.75;;;;;;;;;;5115960;27;20027;-72
2023/03/23 04:48:11;;;;;;;21.73;3.63;;;;;;;;;;5115929;27;20421;-72
2023/03/23 04:50:38;;;;;;;25.45;4.20;;;;;;;;;;5116209;27;20041;-72
2023/03/23 04:53:04;;;;;;;26.33;4.30;;;;;;;;;;5115894;27;20039;-72
2023/03/23 04:55:38;;;;;;;19.83;4.15;;;;;;;;;;5115819;27;20480;-72
2023/03/23 04:58:05;;;;;;;29.13;5.63;;;;;;;;;;5115849;27;20035;-72
2023/03/23 05:00:32;;;;;;;29.88;4.53;;;;;;;;;;5115828;27;20045;-72
2023/03/23 05:02:58;;;;;;;29.05;3.90;;;;;;;;;;5115920;27;20368;-72
2023/03/23 05:05:25;;;;;;;20.88;4.15;;;;;;;;;;5115472;28;20042;-72
2023/03/23 05:07:51;;;;;;;26.42;5.20;;;;;;;;;;5115667;28;20032;-71
2023/03/23 05:10:18;;;;;;;21.00;4.55;;;;;;;;;;5115840;28;20047;-72
2023/03/23 05:12:44;;;;;;;26.52;4.00;;;;;;;;;;5115436;28;20497;-72
2023/03/23 05:15:11;;;;;;;28.63;4.85;;;;;;;;;;5115660;28;20081;-72
2023/03/23 05:17:38;;;;;;;20.52;4.35;;;;;;;;;;5114831;28;20039;-72
2023/03/23 05:20:08;;;;;;;22.58;4.60;;;;;;;;;;5115135;28;20495;-72
2023/03/23 05:22:36;;;;;;;25.50;4.25;;;;;;;;;;5115208;28;20118;-72
2023/03/23 05:25:02;;;;;;;31.48;5.03;;;;;;;;;;5115552;28;20182;-72
2023/03/23 05:27:30;;;;;;;22.52;3.88;;;;;;;;;;5098494;28;20467;-72
2023/03/23 05:29:58;;;;;;;30.90;4.95;;;;;;;;;;5095022;28;20514;-71
2023/03/23 05:32:29;;;;;;;32.92;4.90;;;;;;;;;;5095176;28;20044;-71
2023/03/23 05:35:03;;;;;;;35.70;5.38;;;;;;;;;;5114262;28;20486;-71
2023/03/23 05:37:32;;;;;;;30.50;5.70;;;;;;;;;;5115406;28;20390;-71
2023/03/23 05:40:01;;;;;;;30.73;4.32;;;;;;;;;;5115497;28;20074;-71
2023/03/23 05:42:27;;;;;;;29.17;4.68;;;;;;;;;;5116918;27;20050;-71
2023/03/23 05:44:53;;;;;;;22.63;3.80;;;;;;;;;;5119104;27;20046;-71
2023/03/23 05:47:19;;;;;;;36.88;5.82;;;;;;;;;;5119194;27;20076;-72
2023/03/23 05:49:45;;;;;;;34.35;4.75;;;;;;;;;;5119497;27;20049;-72
2023/03/23 05:52:11;;;;;;;33.22;5.85;;;;;;;;;;5102751;27;20082;-72
2023/03/23 05:54:37;;;;;;;27.88;4.22;;;;;;;;;;5119328;27;20038;-72
2023/03/23 05:57:05;;;;;;;24.40;4.75;;;;;;;;;;5102295;27;20043;-72
2023/03/23 05:59:31;;;;;;;21.25;3.47;;;;;;;;;;5119196;27;20074;-72
2023/03/23 06:01:57;;;;;;;19.83;3.13;;;;;;;;;;5119223;27;20039;-72
2023/03/23 06:04:24;;;;;;;15.48;2.88;;;;;;;;;;5118591;27;20071;-72
2023/03/23 06:06:51;;;;;;;14.52;2.40;;;;;;;;;;5101820;27;20035;-72
2023/03/23 06:09:18;;;;;;;10.88;2.53;;;;;;;;;;5115244;28;20056;-72
2023/03/23 06:11:44;;;;;;;13.07;2.58;;;;;;;;;;5115529;28;20539;-72
2023/03/23 06:14:11;;;;;;;14.52;2.53;;;;;;;;;;5115326;28;20077;-72
2023/03/23 06:16:37;;;;;;;13.63;2.20;;;;;;;;;;5115663;28;20432;-72
2023/03/23 06:19:03;;;;;;;13.30;2.10;;;;;;;;;;5115495;28;20084;-72
2023/03/23 06:21:30;;;;;;;12.80;2.22;;;;;;;;;;5114984;28;20384;-72
2023/03/23 06:23:57;;;;;;;12.50;2.60;;;;;;;;;;5115133;28;20039;-72
2023/03/23 06:26:26;;;;;;;12.25;2.42;;;;;;;;;;5115337;28;20065;-72
2023/03/23 06:28:52;;;;;;;17.90;2.85;;;;;;;;;;5115365;28;20043;-72
2023/03/23 06:31:20;;;;;;;17.85;3.28;;;;;;;;;;5097994;28;20111;-72
2023/03/23 06:33:47;;;;;;;17.35;3.20;;;;;;;;;;5115240;28;20123;-72
2023/03/23 06:36:13;;;;;;;13.18;3.38;;;;;;;;;;5098584;28;20391;-72
2023/03/23 06:38:39;;;;;;;24.33;3.28;;;;;;;;;;5114901;28;20044;-72
2023/03/23 06:41:05;;;;;;;17.90;3.30;;;;;;;;;;5097771;28;20047;-72
2023/03/23 06:43:33;;;;;;;13.90;3.20;;;;;;;;;;5097762;28;20087;-72
2023/03/23 06:46:00;;;;;;;23.92;3.38;;;;;;;;;;5119146;27;20040;-72
2023/03/23 06:48:26;;;;;;;20.70;4.95;;;;;;;;;;5114088;28;20044;-71
2023/03/23 06:50:53;;;;;;;27.20;3.58;;;;;;;;;;5113386;28;20088;-72
2023/03/23 06:53:20;;;;;;;17.60;3.45;;;;;;;;;;5115353;27;20035;-72
2023/03/23 06:55:46;;;;;;;32.03;4.13;;;;;;;;;;5113988;28;20156;-71
2023/03/23 06:58:13;;;;;;;23.27;3.58;;;;;;;;;;5114080;28;20067;-71
2023/03/23 07:00:40;;;;;;;25.10;4.38;;;;;;;;;;5114276;28;20043;-71
2023/03/23 07:03:06;;;;;;;34.33;5.40;;;;;;;;;;5114316;28;20495;-71
2023/03/23 07:05:33;;;;;;;32.92;4.75;;;;;;;;;;5114201;28;20118;-72
2023/03/23 07:07:59;;;;;;;44.05;5.18;;;;;;;;;;5115216;27;20039;-70
2023/03/23 07:10:27;;;;;;;28.40;5.32;;;;;;;;;;5100434;27;20047;-70
2023/03/23 07:12:53;;;;;;;36.03;4.78;;;;;;;;;;5143386;27;20043;-70
2023/03/23 07:15:19;;;;;;;47.22;7.13;;;;;;;;;;5117282;27;20039;-70
2023/03/23 07:17:45;;;;;;;43.80;5.88;;;;;;;;;;5117474;27;20364;-72
2023/03/23 07:20:12;;;;;;;65.38;6.53;;;;;;;;;;5117426;27;20042;-72
2023/03/23 07:22:38;;;;;;;40.03;5.20;;;;;;;;;;5117584;27;20036;-72
2023/03/23 07:25:04;;;;;;;45.22;6.03;;;;;;;;;;5152199;27;20042;-70
2023/03/23 07:27:31;;;;;;;40.45;6.68;;;;;;;;;;5134764;27;20039;-70
2023/03/23 07:29:57;;;;;;;44.42;5.70;;;;;;;;;;5117587;27;20043;-70
2023/03/23 07:32:24;;;;;;;41.10;5.97;;;;;;;;;;5152171;27;20055;-70
2023/03/23 07:34:50;;;;;;;49.08;5.80;;;;;;;;;;5151866;27;20035;-70
2023/03/23 07:37:16;;;;;;;35.20;4.72;;;;;;;;;;5117810;27;20429;-71
2023/03/23 07:39:43;;;;;;;41.97;4.70;;;;;;;;;;5117371;27;20049;-70
2023/03/23 07:42:09;;;;;;;43.67;6.90;;;;;;;;;;5117249;27;20394;-70
2023/03/23 07:44:35;;;;;;;44.35;7.75;;;;;;;;;;5117490;27;20111;-70
2023/03/23 07:47:02;;;;;;;42.67;5.70;;;;;;;;;;5141276;27;20064;-71
2023/03/23 07:49:30;;;;;;;37.25;5.03;;;;;;;;;;5115692;27;20047;-70
2023/03/23 07:51:56;;;;;;;40.15;5.00;;;;;;;;;;5113809;27;20092;-70
2023/03/23 07:54:23;;;;;;;37.80;6.05;;;;;;;;;;5117415;27;20494;-70
2023/03/23 07:56:49;;;;;;;30.48;5.13;;;;;;;;;;5116764;27;20035;-70
2023/03/23 07:59:16;;;;;;;35.50;5.20;;;;;;;;;;5115787;27;20096;-70
2023/03/23 08:01:42;;;;;;;39.28;7.53;;;;;;;;;;5115486;27;20108;-72
2023/03/23 08:04:08;;;;;;;43.33;6.70;;;;;;;;;;5115453;27;20042;-71
2023/03/23 08:06:35;;;;;;;42.65;6.78;;;;;;;;;;5127368;27;20038;-71
2023/03/23 08:09:06;;;;;;;29.85;4.90;;;;;;;;;;5114327;27;20138;-71
2023/03/23 08:11:32;;;;;;;32.05;5.45;;;;;;;;;;5095523;27;20043;-71
2023/03/23 08:13:58;;;;;;;39.08;5.05;;;;;;;;;;5115139;27;20035;-71
2023/03/23 08:16:25;;;;;;;34.92;5.20;;;;;;;;;;5115135;27;20043;-69
2023/03/23 08:18:51;;;;;;;33.92;5.28;;;;;;;;;;5116238;27;20122;-70
2023/03/23 08:21:17;;;;;;;41.60;5.63;;;;;;;;;;5099269;27;20050;-70
2023/03/23 08:23:45;;;;;;;49.45;6.05;;;;;;;;;;5099812;27;20122;-70
2023/03/23 08:26:11;;;;;;;40.15;6.05;;;;;;;;;;5116889;27;20050;-70
2023/03/23 08:28:37;;;;;;;44.80;6.20;;;;;;;;;;5116072;27;20436;-70
2023/03/23 08:31:11;;;;;;;40.97;5.10;;;;;;;;;;5116313;27;20490;-70
2023/03/23 08:33:37;;;;;;;49.63;6.22;;;;;;;;;;5116252;27;20122;-70
2023/03/23 08:36:04;;;;;;;36.65;5.72;;;;;;;;;;5116276;27;20333;-70
2023/03/23 08:38:30;;;;;;;40.22;5.88;;;;;;;;;;5099614;27;20074;-70
2023/03/23 08:41:01;;;;;;;39.92;5.32;;;;;;;;;;5116198;27;20520;-70
2023/03/23 08:43:27;;;;;;;42.42;5.95;;;;;;;;;;5116560;27;20054;-71
2023/03/23 08:45:54;;;;;;;41.42;6.13;;;;;;;;;;5116302;27;20487;-71
2023/03/23 08:48:21;;;;;;;45.92;5.85;;;;;;;;;;5116076;27;20108;-70
2023/03/23 08:50:47;;;;;;;42.45;7.15;;;;;;;;;;5099247;27;20114;-71
2023/03/23 08:53:13;;;;;;;26.23;5.72;;;;;;;;;;5116201;27;20040;-71
2023/03/23 08:55:39;;;;;;;43.03;5.25;;;;;;;;;;5115912;27;20043;-71
2023/03/23 08:58:06;;;;;;;33.67;5.10;;;;;;;;;;5115985;27;20073;-72
2023/03/23 09:00:32;;;;;;;40.72;6.50;;;;;;;;;;5116133;27;20036;-70
2023/03/23 09:02:59;;;;;;;31.85;4.72;;;;;;;;;;5099021;28;20035;-70
2023/03/23 09:05:27;;;;;;;38.42;5.75;;;;;;;;;;5116034;28;20078;-70
2023/03/23 09:07:55;;;;;;;40.15;5.70;;;;;;;;;;5116399;27;20368;-71
2023/03/23 09:10:22;;;;;;;35.40;5.78;;;;;;;;;;5115764;27;20520;-70
2023/03/23 09:12:48;;;;;;;46.67;7.07;;;;;;;;;;5115880;28;20723;-70
2023/03/23 09:15:16;;;;;;;35.47;4.90;;;;;;;;;;5115827;28;20046;-71
2023/03/23 09:17:46;;;;;;;38.05;6.45;;;;;;;;;;5115296;27;20045;-70
2023/03/23 09:20:14;;;;;;;39.00;7.07;;;;;;;;;;5115612;28;20046;-70
2023/03/23 09:22:41;;;;;;;36.10;6.80;;;;;;;;;;5099068;28;20046;-70
2023/03/23 09:25:08;;;;;;;41.08;5.43;;;;;;;;;;5115894;28;20043;-71
2023/03/23 09:27:36;;;;;;;44.05;6.53;;;;;;;;;;5115749;28;20122;-72
2023/03/23 09:30:05;;;;;;;37.17;5.07;;;;;;;;;;5099071;27;20047;-72
2023/03/23 09:32:33;;;;;;;40.22;5.80;;;;;;;;;;5115924;28;20085;-72
2023/03/23 09:34:59;;;;;;;47.75;6.05;;;;;;;;;;5115925;28;20046;-72
2023/03/23 09:37:25;;;;;;;39.80;6.25;;;;;;;;;;5115947;28;20372;-72
2023/03/23 09:39:51;;;;;;;36.58;6.05;;;;;;;;;;5115853;28;20475;-70
2023/03/23 09:42:38;;;;;;;42.38;6.55;;;;;;;;;;5115563;28;20511;-71
2023/03/23 09:45:10;;;;;;;31.95;5.00;;;;;;;;;;5115665;28;20413;-72
2023/03/23 09:47:57;;;;;;;46.88;7.43;;;;;;;;;;5116205;28;20035;-73
2023/03/23 09:50:26;;;;;;;28.95;4.80;;;;;;;;;;5115695;28;20415;-71
2023/03/23 09:52:57;;;;;;;36.25;6.00;;;;;;;;;;5115315;27;20122;-71
2023/03/23 09:55:23;;;;;;;37.22;4.80;;;;;;;;;;5115390;28;20035;-70
2023/03/23 09:57:56;;;;;;;34.20;5.50;;;;;;;;;;5115263;28;20047;-72
2023/03/23 10:00:31;;;;;;;34.88;4.50;;;;;;;;;;5115375;28;20069;-72
2023/03/23 10:03:07;;;;;;;33.17;4.50;;;;;;;;;;5115802;28;20399;-70
2023/03/23 10:05:39;;;;;;;33.10;4.85;;;;;;;;;;5115237;27;20039;-70
2023/03/23 10:08:22;;;;;;;49.53;6.28;;;;;;;;;;5115376;28;20040;-70
2023/03/23 10:11:12;;;;;;;31.05;4.65;;;;;;;;;;5114068;28;20051;-70
2023/03/23 10:13:38;;;;;;;31.33;4.82;;;;;;;;;;5068803;28;20134;-70
2023/03/23 10:16:05;;;;;;;39.33;4.80;;;;;;;;;;5115198;27;20038;-69
2023/03/23 10:18:41;;;;;;;30.02;4.78;;;;;;;;;;5097974;28;20031;-70
2023/03/23 10:21:12;;;;;;;28.70;4.60;;;;;;;;;;5114093;28;20036;-67
2023/03/23 10:24:04;;;;;;;39.67;4.80;;;;;;;;;;5110426;28;20110;-79
2023/03/23 10:26:30;;;;;;;35.13;5.13;;;;;;;;;;5104767;28;20047;-70
2023/03/23 10:28:59;;;;;;;37.70;7.78;;;;;;;;;;5115864;27;20074;-70
2023/03/23 10:31:28;;;;;;;41.67;5.03;;;;;;;;;;5118645;27;20039;-70
2023/03/23 10:33:56;;;;;;;29.20;4.55;;;;;;;;;;5119796;27;20050;-70
2023/03/23 10:36:31;;;;;;;29.98;4.32;;;;;;;;;;5118607;27;20505;-70
2023/03/23 10:39:00;;;;;;;32.28;4.65;;;;;;;;;;5118805;27;20046;-69
2023/03/23 10:41:26;;;;;;;34.58;5.10;;;;;;;;;;5118465;27;20099;-70
2023/03/23 10:43:54;;;;;;;31.27;4.82;;;;;;;;;;5118259;27;20043;-67
2023/03/23 10:46:27;;;;;;;37.08;5.35;;;;;;;;;;5152305;27;20046;-67
2023/03/23 10:48:54;;;;;;;55.22;7.18;;;;;;;;;;5153149;27;20043;-67
2023/03/23 10:51:23;;;;;;;39.22;5.07;;;;;;;;;;5152138;27;20050;-67
2023/03/23 10:53:57;;;;;;;44.58;5.22;;;;;;;;;;5117753;27;20053;-70
2023/03/23 10:56:28;;;;;;;30.10;5.22;;;;;;;;;;5098352;27;20047;-69
2023/03/23 10:58:55;;;;;;;30.02;4.53;;;;;;;;;;5100700;27;20049;-73
2023/03/23 11:01:29;;;;;;;31.02;6.55;;;;;;;;;;5111500;27;20039;-73
2023/03/23 11:03:55;;;;;;;29.73;5.20;;;;;;;;;;5125764;27;20423;-73
2023/03/23 11:06:26;;;;;;;27.60;4.10;;;;;;;;;;5105021;27;20041;-72
2023/03/23 11:09:01;;;;;;;29.77;4.60;;;;;;;;;;5117480;27;20042;-72
2023/03/23 11:11:31;;;;;;;21.00;3.78;;;;;;;;;;5115094;27;20047;-70
2023/03/23 11:14:00;;;;;;;45.13;4.88;;;;;;;;;;5115719;27;20043;-70
2023/03/23 11:16:44;;;;;;;28.75;4.03;;;;;;;;;;5120338;27;20043;-72
2023/03/23 11:19:21;;;;;;;28.30;5.03;;;;;;;;;;5102862;27;20039;-72
2023/03/23 11:21:55;;;;;;;25.38;3.92;;;;;;;;;;5134964;27;20479;-73
2023/03/23 11:24:26;;;;;;;24.48;5.03;;;;;;;;;;5115764;27;20114;-73
2023/03/23 11:26:53;;;;;;;24.50;3.80;;;;;;;;;;5140392;27;20548;-70
2023/03/23 11:29:22;;;;;;;24.95;3.42;;;;;;;;;;5116989;27;20527;-68
2023/03/23 11:31:52;;;;;;;22.73;3.65;;;;;;;;;;5141415;27;20536;-69
2023/03/23 11:34:41;;;;;;;31.33;4.18;;;;;;;;;;5116953;27;20066;-69
2023/03/23 11:37:26;;;;;;;25.80;3.53;;;;;;;;;;5151807;27;20054;-69
2023/03/23 11:39:57;;;;;;;24.02;4.07;;;;;;;;;;5134129;27;20055;-69
2023/03/23 11:42:35;;;;;;;23.90;3.57;;;;;;;;;;5151781;27;20046;-70
2023/03/23 11:45:22;;;;;;;21.42;3.63;;;;;;;;;;5115949;27;20121;-69
2023/03/23 11:48:06;;;;;;;24.23;3.47;;;13.40;99.90;;;;;;5117185;27;20050;-69
2023/03/23 11:50:52;;;;;;;39.13;4.35;;;;;;;;;;5117169;27;20505;-69
2023/03/23 11:53:18;;;;;;;28.48;4.05;;;;;;;;;;5100123;27;20039;-69
2023/03/23 11:55:45;;;;;;;24.77;4.45;;;;;;;;;;5117251;27;20070;-69
2023/03/23 11:58:16;;;;;;;23.63;3.83;;;;;;;;;;5116975;27;20031;-69
2023/03/23 12:00:48;;;;;;;24.23;4.00;;;;;;;;;;5116720;27;20091;-69
2023/03/23 12:03:40;;;;;;;24.92;3.40;;;14.10;99.90;;;;;;5099267;27;20042;-70
2023/03/23 12:06:13;;;;;;;24.23;4.40;;;;;;;;;;5099666;27;20586;-69
2023/03/23 12:08:40;;;;;;;21.27;3.97;;;;;;;;;;5116578;27;20064;-69
2023/03/23 12:11:15;;;;;;;26.83;3.83;;;;;;;;;;5116135;27;20104;-69
2023/03/23 12:13:52;;;;;;;28.10;4.63;;;;;;;;;;5116001;27;20046;-69
2023/03/23 12:16:33;;;;;;;29.13;4.57;;;;;;;;;;5116749;27;20387;-69
2023/03/23 12:19:14;;;;;;;27.05;3.20;;;;;;;;;;5116479;27;20047;-69
2023/03/23 12:22:02;;;;;;;22.27;4.88;;;;;;;;;;5110758;27;20092;-69
2023/03/23 12:24:49;;;;;;;25.23;4.53;;;;;;;;;;5111167;27;20045;-70
2023/03/23 12:27:19;;;;;;;25.67;4.72;;;;;;;;;;5112877;27;20038;-69
2023/03/23 12:29:45;;;;;;;24.88;5.10;;;;;;;;;;5115538;27;20046;-69
2023/03/23 12:32:50;;;;;;;22.38;4.07;;;;;;;;;;5115748;27;20069;-69
2023/03/23 12:35:31;;;;;;;26.25;4.10;;;;;;;;;;5014258;28;20045;-69
2023/03/23 12:37:57;;;;;;;25.23;4.20;;;;;;;;;;5014852;28;20525;-69
2023/03/23 12:40:32;;;;;;;22.70;4.18;;;;;;;;;;5072963;27;20054;-70
2023/03/23 12:43:05;;;;;;;24.58;3.75;;;;;;;;;;5116031;27;20126;-69
2023/03/23 12:45:41;;;;;;;33.97;5.32;;;;;;;;;;5116353;27;20031;-69
2023/03/23 12:48:16;;;;;;;27.52;4.45;;;;;;;;;;5116160;27;20554;-69
2023/03/23 12:50:46;;;;;;;17.45;3.75;;;;;;;;;;5099129;27;20467;-69
2023/03/23 12:53:33;;;;;;;26.30;4.30;;;;;;;;;;5115700;27;20054;-69
2023/03/23 12:56:13;;;;;;;23.23;3.85;;;;;;;;;;5116356;27;20039;-69
2023/03/23 12:58:42;;;;;;;21.60;4.18;;;;;;;;;;5116230;27;20475;-69
2023/03/23 13:01:11;;;;;;;29.73;4.05;;;;;;;;;;5099212;27;20049;-69
2023/03/23 13:03:45;;;;;;;25.23;4.15;;;;;;;;;;5115902;27;20122;-69
2023/03/23 13:06:24;;;;;;;21.75;3.90;;;;;;;;;;5116169;28;20391;-69
2023/03/23 13:09:12;;;;;;;24.23;3.35;;;;;;;;;;5115908;28;20035;-69
2023/03/23 13:11:41;;;;;;;30.90;4.85;;;15.10;99.90;;;;;;5116046;28;20059;-69
2023/03/23 13:14:16;;;;;;;25.88;4.38;;;;;;;;;;5115688;28;20039;-69
2023/03/23 13:16:56;;;;;;;23.95;4.60;;;;;;;;;;5116087;28;20043;-69
2023/03/23 13:19:54;;;;;;;26.58;4.13;;;;;;;;;;5115704;28;20043;-69
2023/03/23 13:22:28;;;;;;;30.80;4.57;;;;;;;;;;5115632;28;20092;-69
2023/03/23 13:25:01;;;;;;;31.85;4.15;;;;;;;;;;5115697;28;20039;-69
2023/03/23 13:27:29;;;;;;;23.92;4.68;;;;;;;;;;5115812;28;20095;-69
2023/03/23 13:29:56;;;;;;;26.83;3.85;;;;;;;;;;5115989;28;20360;-69
2023/03/23 13:32:23;;;;;;;26.83;3.75;;;;;;;;;;5082002;28;20043;-69
2023/03/23 13:34:49;;;;;;;28.30;4.97;;;;;;;;;;5098729;28;20050;-69
2023/03/23 13:37:18;;;;;;;19.70;3.90;;;;;;;;;;5115747;28;20082;-69
2023/03/23 13:40:11;;;;;;;27.83;4.53;;;;;;;;;;5115728;28;20039;-69
2023/03/23 13:42:47;;;;;;;22.20;3.85;;;;;;;;;;5104526;28;20104;-69
2023/03/23 13:45:22;;;;;;;29.95;4.78;;;;;;;;;;5098442;28;20035;-69
2023/03/23 13:47:49;;;;;;;26.23;4.70;;;;;;;;;;5115909;28;20043;-69
2023/03/23 13:50:19;;;;;;;24.90;4.00;;;;;;;;;;5115677;28;20042;-70
2023/03/23 13:52:45;;;;;;;25.92;4.07;;;;;;;;;;5098716;28;20039;-69
2023/03/23 13:55:36;;;;;;;19.63;3.78;;;15.10;99.90;;;;;;5115469;28;20039;-70
2023/03/23 13:58:02;;;;;;;22.38;4.43;;;;;;;;;;5115364;28;20043;-69
2023/03/23 14:00:34;;;;;;;25.13;3.85;;;;;;;;;;5115368;28;20039;-69
2023/03/23 14:03:10;;;;;;;24.60;4.35;;;;;;;;;;5116009;27;20043;-70
2023/03/23 14:05:44;;;;;;;21.73;3.95;;;;;;;;;;5119294;27;20064;-69
2023/03/23 14:08:13;;;;;;;17.92;2.83;;;;;;;;;;5119571;27;20099;-69
2023/03/23 14:10:39;;;;;;;21.88;3.92;;;;;;;;;;5118977;27;20486;-69
2023/03/23 14:13:06;;;;;;;22.13;3.22;;;;;;;;;;5101725;27;20062;-69
2023/03/23 14:15:44;;;;;;;27.65;4.65;;;;;;;;;;5119241;27;20104;-69
2023/03/23 14:18:14;;;;;;;19.55;4.00;;;;;;;;;;5098369;28;20122;-69
2023/03/23 14:20:40;;;;;;;26.92;3.58;;;;;;;;;;5098371;28;20075;-69
2023/03/23 14:23:06;;;;;;;23.52;4.05;;;;;;;;;;5098924;28;20059;-69
2023/03/23 14:25:32;;;;;;;17.08;3.55;;;;;;;;;;5115538;28;20046;-69
2023/03/23 14:27:59;;;;;;;20.42;4.22;;;;;;;;;;5114241;28;20035;-69
2023/03/23 14:30:35;;;;;;;19.27;3.53;;;;;;;;;;5098262;28;20043;-69
2023/03/23 14:33:07;;;;;;;19.40;3.72;;;;;;;;;;5098486;28;20043;-69
2023/03/23 14:35:33;;;;;;;;;;;;;;;;;;5098676;28;20043;-69
2023/03/23 14:37:59;;;;;;;14.60;2.45;;;;;;;;;;5115326;28;19923;-69
2023/03/23 14:40:30;;;;;;;19.98;3.38;;;;;;;;;;5118820;27;20034;-69
2023/03/23 14:42:56;;;;;;;18.40;4.00;;;;;;;;;;5117705;27;20031;-69